MSC Chiara — H3RT — position and weather

sailwx.info

Track history (hours):
 
Tides and Currents Weather Stations Pressure Air Temp Water Temp Dewpoint Dewpoint Depression Visibility Wind Speed Wind Dir Waves Ship Positions

MSC Chiara

Last reported at 2014-Jul-07 23:18 UTC. Time now 2014-Jul-26 07:12 UTC.
Position S 29°38' E 031°28'.
Warning: this ship's position is 18 days out of date.

Length 197 m; draft 7.5 m.

Type: Ship (hazmat cat A). MMSI: 352398000.

Date/timePositionNaut miles runAvg speedWind from/ knotsBaromVisibWave heightAir tempDewpointWater temp
2014-Jul-07 23:18S 29°38' E 031°28'1014.2
2014-Jul-07 22:33S 29°46' E 031°20'1313.0
2014-Jul-07 21:33S 29°51' E 031°06'4 3.8
2014-Jul-07 20:33S 29°52' E 031°02'  
2014-Jun-29 09:33S 29°53' E 031°02'0 0.0
2014-Jun-29 07:23S 29°53' E 031°02'0 0.0
2014-Jun-28 21:19S 29°53' E 031°02'0 0.0
2014-Jun-28 12:12S 29°53' E 031°02'0 0.0
2014-Jun-28 05:20S 29°53' E 031°02'0 0.0
2014-Jun-28 02:33S 29°53' E 031°02'5 4.9
2014-Jun-28 01:33S 29°49' E 031°05'4 3.6
2014-Jun-28 00:33S 29°47' E 031°09'10 9.7
2014-Jun-27 23:33S 29°38' E 031°13'  
Track history (hours):
 
Tides and Currents Weather Stations Pressure Air Temp Water Temp Dewpoint Dewpoint Depression Visibility Wind Speed Wind Dir Waves Ship Positions

MSC Chiara

Last reported at 2014-Jul-07 23:18 UTC. Time now 2014-Jul-26 07:12 UTC.
Position S 29°38' E 031°28'.
Warning: this ship's position is 18 days out of date.

Length 197 m; draft 7.5 m.

Type: Ship (hazmat cat A). MMSI: 352398000.

Date/timePositionNaut miles runAvg speedWind from/ knotsBaromVisibWave heightAir tempDewpointWater temp
2014-Jul-07 23:18S 29°38' E 031°28'1014.2
2014-Jul-07 22:33S 29°46' E 031°20'1313.0
2014-Jul-07 21:33S 29°51' E 031°06'4 3.8
2014-Jul-07 20:33S 29°52' E 031°02'  
2014-Jun-29 09:33S 29°53' E 031°02'0 0.0
2014-Jun-29 07:23S 29°53' E 031°02'0 0.0
2014-Jun-28 21:19S 29°53' E 031°02'0 0.0
2014-Jun-28 12:12S 29°53' E 031°02'0 0.0
2014-Jun-28 05:20S 29°53' E 031°02'0 0.0
2014-Jun-28 02:33S 29°53' E 031°02'5 4.9
2014-Jun-28 01:33S 29°49' E 031°05'4 3.6
2014-Jun-28 00:33S 29°47' E 031°09'10 9.7
2014-Jun-27 23:33S 29°38' E 031°13'  

Dump ship's entire track history